Time;durP1;ratioP1;P1;durP2;ratioP2;P2;SDS_P1;SDS_P2;PMS_P1;PMS_P2;Temp;Humidity;BMP_temperature;BMP_pressure;BME280_temperature;BME280_humidity;BME280_pressure;Samples;Min_cycle;Max_cycle;Signal;HPM_P1;HPM_P2
2021/10/07 00:00:33;;;;;;;30.60;20.00;;;13.20;99.90;;;;;;5034522;28;20441;-65
2021/10/07 00:03:00;;;;;;;28.97;20.80;;;13.20;99.90;;;;;;5050116;28;20448;-65
2021/10/07 00:05:26;;;;;;;28.03;20.13;;;13.20;99.90;;;;;;5054276;28;20890;-64
2021/10/07 00:07:55;;;;;;;24.67;18.30;;;13.10;99.90;;;;;;5053966;28;20440;-65
2021/10/07 00:10:21;;;;;;;22.90;18.37;;;13.20;99.90;;;;;;5054158;28;20456;-65
2021/10/07 00:12:48;;;;;;;27.33;18.60;;;13.20;99.90;;;;;;5039531;28;20456;-64
2021/10/07 00:15:15;;;;;;;32.17;21.57;;;13.20;99.90;;;;;;5034176;28;20489;-65
2021/10/07 00:17:42;;;;;;;28.50;20.33;;;13.20;99.90;;;;;;5034163;28;20931;-61
2021/10/07 00:20:11;;;;;;;24.47;18.97;;;13.20;99.90;;;;;;5034081;28;20499;-63
2021/10/07 00:22:39;;;;;;;32.00;19.50;;;13.20;99.90;;;;;;5046399;28;20455;-65
2021/10/07 00:25:09;;;;;;;30.00;20.43;;;13.20;99.90;;;;;;5053782;28;20468;-64
2021/10/07 00:27:36;;;;;;;25.47;18.43;;;13.20;99.90;;;;;;5053904;28;20444;-64
2021/10/07 00:30:06;;;;;;;34.10;20.90;;;13.10;99.90;;;;;;5053940;28;20444;-64
2021/10/07 00:32:35;;;;;;;24.83;19.13;;;13.10;99.90;;;;;;5041889;28;20475;-64
2021/10/07 00:35:23;;;;;;;27.80;20.53;;;13.10;99.90;;;;;;5033862;28;20491;-65
2021/10/07 00:40:35;;;;;;;32.67;20.70;;;13.10;99.90;;;;;;5033671;28;20934;-65
2021/10/07 00:43:02;;;;;;;30.77;21.73;;;13.10;99.90;;;;;;5035999;28;20456;-65
2021/10/07 00:45:29;;;;;;;26.17;19.20;;;13.10;99.90;;;;;;5033592;28;20452;-63
2021/10/07 00:47:55;;;;;;;31.10;20.10;;;13.10;99.90;;;;;;5033591;28;20945;-64
2021/10/07 00:50:22;;;;;;;28.20;21.27;;;13.10;99.90;;;;;;5033784;28;20445;-64
2021/10/07 00:52:49;;;;;;;28.13;21.37;;;13.10;99.90;;;;;;5047224;28;20470;-63
2021/10/07 00:55:15;;;;;;;39.70;22.93;;;13.10;99.90;;;;;;5053809;28;21057;-65
2021/10/07 00:57:44;;;;;;;37.63;24.77;;;13.10;99.90;;;;;;5053619;28;20949;-63
2021/10/07 01:00:12;;;;;;;35.70;24.50;;;13.10;99.90;;;;;;5053713;28;20467;-64
2021/10/07 01:02:38;;;;;;;45.03;25.67;;;13.10;99.90;;;;;;5053587;28;20455;-64
2021/10/07 01:05:06;;;;;;;43.23;27.00;;;13.20;99.90;;;;;;5039424;28;20469;-63
2021/10/07 01:07:33;;;;;;;37.60;23.40;;;13.20;99.90;;;;;;5033339;28;20445;-64
2021/10/07 01:09:59;;;;;;;38.23;26.20;;;13.20;99.90;;;;;;5033484;28;20934;-63
2021/10/07 01:12:26;;;;;;;38.30;26.40;;;13.20;99.90;;;;;;5033390;28;20456;-64
2021/10/07 01:14:57;;;;;;;43.33;26.80;;;13.30;99.90;;;;;;5033017;28;20476;-65
2021/10/07 01:17:26;;;;;;;36.50;24.27;;;13.30;99.90;;;;;;5050577;28;20475;-64
2021/10/07 01:19:55;;;;;;;48.83;30.60;;;13.20;99.90;;;;;;5053174;28;20545;-65
2021/10/07 01:22:24;;;;;;;56.03;32.90;;;13.20;99.90;;;;;;5053317;28;20463;-65
2021/10/07 01:24:51;;;;;;;45.60;33.17;;;13.20;99.90;;;;;;5037357;28;20544;-66
2021/10/07 01:27:20;;;;;;;56.70;36.20;;;13.30;99.90;;;;;;5033321;28;20446;-64
2021/10/07 01:29:52;;;;;;;56.17;34.47;;;13.30;99.90;;;;;;5032988;28;20445;-65
2021/10/07 01:32:19;;;;;;;63.13;38.60;;;13.20;99.90;;;;;;5033232;28;20471;-65
2021/10/07 01:34:46;;;;;;;53.13;33.87;;;13.20;99.90;;;;;;5047162;28;20492;-63
2021/10/07 01:37:14;;;;;;;47.80;28.23;;;13.30;99.90;;;;;;5052777;28;20508;-65
2021/10/07 01:39:41;;;;;;;66.67;34.00;;;13.30;99.90;;;;;;5052595;28;20463;-65
2021/10/07 01:42:08;;;;;;;65.67;41.33;;;13.30;99.90;;;;;;5052504;28;20452;-63
2021/10/07 01:44:35;;;;;;;59.43;38.13;;;13.30;99.90;;;;;;5052585;28;21004;-65
2021/10/07 01:47:02;;;;;;;67.07;42.30;;;13.40;99.90;;;;;;5033960;28;20460;-64
2021/10/07 01:49:29;;;;;;;89.20;43.97;;;13.40;99.90;;;;;;5032618;28;20507;-64
2021/10/07 01:51:56;;;;;;;73.73;45.80;;;13.30;99.90;;;;;;5032798;28;20445;-65
2021/10/07 01:54:24;;;;;;;77.33;45.13;;;13.30;99.90;;;;;;5042079;28;20479;-65
2021/10/07 01:56:51;;;;;;;86.87;48.33;;;13.20;99.90;;;;;;5051955;28;20486;-65
2021/10/07 01:59:17;;;;;;;71.03;42.10;;;13.20;99.90;;;;;;5052347;28;20455;-65
2021/10/07 02:01:44;;;;;;;71.37;42.30;;;13.20;99.90;;;;;;5050818;28;20791;-65
2021/10/07 02:04:11;;;;;;;74.47;43.57;;;13.20;99.90;;;;;;5052688;28;20464;-64
2021/10/07 02:06:37;;;;;;;75.80;40.03;;;13.10;99.90;;;;;;5052713;28;20877;-65
2021/10/07 02:09:05;;;;;;;65.43;37.60;;;13.10;99.90;;;;;;5052581;28;20455;-65
2021/10/07 02:11:34;;;;;;;54.60;34.70;;;13.10;99.90;;;;;;5041224;28;20473;-65
2021/10/07 02:14:01;;;;;;;49.97;29.43;;;13.10;99.90;;;;;;5032369;28;20522;-65
2021/10/07 02:16:28;;;;;;;40.53;23.70;;;13.10;99.90;;;;;;5032494;28;20551;-64
2021/10/07 02:18:55;;;;;;;38.40;25.07;;;13.10;99.90;;;;;;5032115;28;20452;-62
2021/10/07 02:21:22;;;;;;;33.20;23.77;;;13.10;99.90;;;;;;5032667;28;20445;-64
2021/10/07 02:23:48;;;;;;;37.90;22.93;;;13.10;99.90;;;;;;5046001;28;20494;-65
2021/10/07 02:26:15;;;;;;;31.70;20.27;;;13.20;99.90;;;;;;5052388;28;20440;-63
2021/10/07 02:28:43;;;;;;;36.10;22.40;;;13.20;99.90;;;;;;5052448;28;20862;-65
2021/10/07 02:31:10;;;;;;;30.43;21.53;;;13.10;99.90;;;;;;5052321;28;20443;-63
2021/10/07 02:33:37;;;;;;;33.93;22.30;;;13.10;99.90;;;;;;5052102;28;20467;-64
2021/10/07 02:36:04;;;;;;;27.43;20.70;;;13.10;99.90;;;;;;5034872;28;20983;-64
2021/10/07 02:38:31;;;;;;;28.77;20.37;;;13.20;99.90;;;;;;5031585;28;20445;-65
2021/10/07 02:40:58;;;;;;;33.20;21.90;;;13.10;99.90;;;;;;5031833;28;20451;-63
2021/10/07 02:43:25;;;;;;;30.10;21.60;;;13.20;99.90;;;;;;5031974;28;20465;-65
2021/10/07 02:45:53;;;;;;;33.50;21.80;;;13.20;99.90;;;;;;5031811;28;20452;-65
2021/10/07 02:48:19;;;;;;;34.57;21.90;;;13.30;99.90;;;;;;5047429;28;20452;-65
2021/10/07 02:50:46;;;;;;;29.67;20.40;;;13.30;99.90;;;;;;5051723;28;20441;-64
2021/10/07 02:53:13;;;;;;;41.93;24.87;;;13.30;99.90;;;;;;5051630;28;20478;-65
2021/10/07 02:55:39;;;;;;;41.90;26.87;;;13.20;99.90;;;;;;5051742;28;20451;-65
2021/10/07 02:58:06;;;;;;;54.03;31.00;;;13.30;99.90;;;;;;5051383;28;20452;-63
2021/10/07 03:00:33;;;;;;;52.27;29.53;;;13.30;99.90;;;;;;5033823;28;20456;-64
2021/10/07 03:03:01;;;;;;;47.37;29.40;;;13.30;99.90;;;;;;5031726;28;20445;-65
2021/10/07 03:05:27;;;;;;;55.07;28.50;;;13.30;99.90;;;;;;5031893;28;20503;-65
2021/10/07 03:07:54;;;;;;;48.50;27.33;;;13.30;99.90;;;;;;5033965;28;20437;-65
2021/10/07 03:10:21;;;;;;;41.37;26.07;;;13.30;99.90;;;;;;5037388;28;20834;-65
2021/10/07 03:12:47;;;;;;;51.13;28.87;;;13.20;99.90;;;;;;5054955;28;20853;-65
2021/10/07 03:15:14;;;;;;;50.27;31.03;;;13.20;99.90;;;;;;5055328;28;20447;-65
2021/10/07 03:17:41;;;;;;;41.23;25.40;;;13.20;99.90;;;;;;5055203;28;20487;-64
2021/10/07 03:20:10;;;;;;;35.07;20.03;;;13.20;99.90;;;;;;5054824;28;20951;-63
2021/10/07 03:22:37;;;;;;;35.40;22.20;;;13.20;99.90;;;;;;5015125;28;20441;-64
2021/10/07 03:25:05;;;;;;;41.93;23.77;;;13.10;99.90;;;;;;5016716;28;20474;-65
2021/10/07 03:27:32;;;;;;;32.17;21.83;;;13.10;99.90;;;;;;5034964;28;20923;-65
2021/10/07 03:29:59;;;;;;;37.27;20.83;;;13.10;99.90;;;;;;5034777;28;20464;-64
2021/10/07 03:32:25;;;;;;;36.10;23.03;;;13.10;99.90;;;;;;5039070;28;20457;-63
2021/10/07 03:34:52;;;;;;;35.20;20.73;;;13.00;99.90;;;;;;5054698;28;20880;-65
2021/10/07 03:37:20;;;;;;;37.63;24.23;;;13.10;99.90;;;;;;5054985;28;20488;-64
2021/10/07 03:39:47;;;;;;;34.77;19.93;;;13.00;99.90;;;;;;5054669;28;20448;-64
2021/10/07 03:42:13;;;;;;;39.07;27.20;;;13.00;99.90;;;;;;5054871;28;20440;-65
2021/10/07 03:44:41;;;;;;;34.93;21.00;;;13.00;99.90;;;;;;5046600;28;20877;-65
2021/10/07 03:47:08;;;;;;;43.00;21.20;;;13.00;99.90;;;;;;5034831;28;20473;-63
2021/10/07 03:49:35;;;;;;;36.70;21.50;;;13.00;99.90;;;;;;5034815;28;20452;-65
2021/10/07 03:52:02;;;;;;;39.27;22.40;;;13.00;99.90;;;;;;5034726;28;20460;-64
2021/10/07 03:54:30;;;;;;;34.90;20.73;;;13.00;99.90;;;;;;5034661;28;20484;-64
2021/10/07 03:56:57;;;;;;;32.20;20.53;;;13.00;99.90;;;;;;5045872;28;20483;-64
2021/10/07 03:59:24;;;;;;;39.37;22.57;;;13.00;99.90;;;;;;5057239;22;20943;-66
2021/10/07 04:01:51;;;;;;;32.70;21.20;;;13.00;99.90;;;;;;5021795;28;20769;-67
2021/10/07 04:04:18;;;;;;;29.27;20.03;;;13.00;99.90;;;;;;5014288;28;20435;-65
2021/10/07 04:06:44;;;;;;;36.93;22.90;;;13.00;99.90;;;;;;5014329;28;20445;-64
2021/10/07 04:09:11;;;;;;;38.23;22.27;;;13.00;99.90;;;;;;5028487;28;20468;-67
2021/10/07 04:11:39;;;;;;;24.90;18.07;;;13.00;99.90;;;;;;5033659;28;20457;-67
2021/10/07 04:14:06;;;;;;;27.83;18.57;;;13.00;99.90;;;;;;5033803;28;20445;-69
2021/10/07 04:16:33;;;;;;;29.80;18.60;;;13.00;99.90;;;;;;5033528;28;20900;-67
2021/10/07 04:18:59;;;;;;;26.20;18.90;;;13.00;99.90;;;;;;5032526;28;20524;-65
2021/10/07 04:21:26;;;;;;;25.90;17.03;;;13.00;99.90;;;;;;5048333;28;20451;-66
2021/10/07 04:23:53;;;;;;;32.67;18.10;;;13.00;99.90;;;;;;5053327;28;20455;-67
2021/10/07 04:26:20;;;;;;;27.40;19.73;;;12.90;99.90;;;;;;5053348;28;20448;-66
2021/10/07 04:28:48;;;;;;;39.93;20.60;;;12.90;99.90;;;;;;5053133;28;20474;-66
2021/10/07 04:31:15;;;;;;;28.47;18.30;;;12.90;99.90;;;;;;5053194;28;20456;-65
2021/10/07 04:33:41;;;;;;;29.10;16.93;;;12.90;99.90;;;;;;5052980;28;20451;-65
2021/10/07 04:36:08;;;;;;;33.40;18.20;;;12.80;99.90;;;;;;5053390;28;20463;-67
2021/10/07 04:38:35;;;;;;;35.73;19.33;;;12.80;99.90;;;;;;5052728;28;20495;-67
2021/10/07 04:41:02;;;;;;;25.93;17.47;;;12.80;99.90;;;;;;5053204;28;20539;-67
2021/10/07 04:43:29;;;;;;;36.83;20.30;;;12.80;99.90;;;;;;5052403;28;20981;-67
2021/10/07 04:45:57;;;;;;;35.83;20.10;;;12.80;99.90;;;;;;5033099;28;20450;-65
2021/10/07 04:48:24;;;;;;;25.63;18.10;;;12.80;99.90;;;;;;5032906;28;20465;-66
2021/10/07 04:50:50;;;;;;;29.57;17.57;;;12.70;99.90;;;;;;5048207;28;20478;-63
2021/10/07 04:53:17;;;;;;;30.03;16.43;;;12.70;99.90;;;;;;5052858;28;20452;-66
2021/10/07 04:55:44;;;;;;;30.20;17.53;;;12.70;99.90;;;;;;5052405;28;20451;-65
2021/10/07 04:58:10;;;;;;;32.70;18.40;;;12.60;99.90;;;;;;5052501;28;21015;-65
2021/10/07 05:00:37;;;;;;;37.23;19.33;;;12.70;99.90;;;;;;5052667;28;20471;-64
2021/10/07 05:03:05;;;;;;;26.13;18.30;;;12.70;99.90;;;;;;5052905;28;20439;-63
2021/10/07 05:05:32;;;;;;;31.53;18.87;;;12.80;99.90;;;;;;5052651;28;20444;-63
2021/10/07 05:07:58;;;;;;;32.50;18.43;;;12.70;99.90;;;;;;5052305;28;20944;-65
2021/10/07 05:10:25;;;;;;;34.33;19.43;;;12.70;99.90;;;;;;5052571;28;21118;-66
2021/10/07 05:12:52;;;;;;;30.53;19.73;;;12.80;99.90;;;;;;5052547;28;20810;-64
2021/10/07 05:15:21;;;;;;;26.30;17.53;;;12.80;99.90;;;;;;5052449;28;20444;-67
2021/10/07 05:17:48;;;;;;;31.43;16.23;;;12.80;99.90;;;;;;5052222;28;20988;-63
2021/10/07 05:20:16;;;;;;;32.70;20.00;;;12.80;99.90;;;;;;5052425;28;20444;-65
2021/10/07 05:22:43;;;;;;;31.03;18.67;;;12.80;99.90;;;;;;5052419;28;20444;-63
2021/10/07 05:25:10;;;;;;;29.13;16.67;;;12.70;99.90;;;;;;5052340;28;20506;-65
2021/10/07 05:27:36;;;;;;;30.53;16.43;;;12.60;99.90;;;;;;5052248;28;20447;-63
2021/10/07 05:30:05;;;;;;;30.83;18.90;;;12.50;99.90;;;;;;5051683;28;20828;-65
2021/10/07 05:32:31;;;;;;;28.00;19.10;;;12.40;99.90;;;;;;5052219;28;20440;-65
2021/10/07 05:34:59;;;;;;;28.10;16.80;;;12.40;99.90;;;;;;5052003;28;20452;-65
2021/10/07 05:37:28;;;;;;;31.73;17.30;;;12.30;99.90;;;;;;5051951;28;20480;-66
2021/10/07 05:39:55;;;;;;;32.03;16.90;;;12.10;99.90;;;;;;5051539;28;20872;-65
2021/10/07 05:42:21;;;;;;;27.90;15.80;;;12.10;99.90;;;;;;5051620;28;20448;-65
2021/10/07 05:44:48;;;;;;;28.30;18.40;;;12.00;99.90;;;;;;5052020;28;20452;-66
2021/10/07 05:47:15;;;;;;;28.00;16.10;;;12.00;99.90;;;;;;5051949;28;20446;-65
2021/10/07 05:49:42;;;;;;;32.33;18.30;;;11.90;99.90;;;;;;5051557;28;20464;-63
2021/10/07 05:52:08;;;;;;;39.93;20.80;;;11.90;99.90;;;;;;5051880;28;20475;-66
2021/10/07 05:54:36;;;;;;;35.93;18.57;;;12.00;99.90;;;;;;5051781;28;20452;-65
2021/10/07 05:57:04;;;;;;;30.90;17.90;;;12.10;99.90;;;;;;5051684;28;20476;-63
2021/10/07 05:59:31;;;;;;;38.60;18.30;;;12.20;99.90;;;;;;5051217;28;20483;-65
2021/10/07 06:01:58;;;;;;;39.10;19.70;;;12.20;99.90;;;;;;5051550;28;20455;-65
2021/10/07 06:04:25;;;;;;;32.17;17.30;;;12.30;99.90;;;;;;5051700;28;20480;-67
2021/10/07 06:06:52;;;;;;;31.37;17.53;;;12.40;99.90;;;;;;5051799;28;20440;-65
2021/10/07 06:09:19;;;;;;;37.37;19.67;;;12.50;99.90;;;;;;5051216;28;21034;-66
2021/10/07 06:11:47;;;;;;;31.87;18.00;;;12.50;99.90;;;;;;5051636;28;20801;-65
2021/10/07 06:14:14;;;;;;;27.30;15.37;;;12.50;99.90;;;;;;5051689;28;20527;-64
2021/10/07 06:16:40;;;;;;;27.53;19.07;;;12.60;99.90;;;;;;5051593;28;20452;-63
2021/10/07 06:19:10;;;;;;;43.17;20.47;;;12.60;99.90;;;;;;5051131;28;20557;-65
2021/10/07 06:21:37;;;;;;;30.50;17.17;;;12.70;99.90;;;;;;5051699;28;20492;-63
2021/10/07 06:24:05;;;;;;;27.47;17.00;;;12.70;99.90;;;;;;5051640;28;20440;-64
2021/10/07 06:26:32;;;;;;;28.67;17.37;;;12.70;99.90;;;;;;5051408;28;20933;-66
2021/10/07 06:29:00;;;;;;;35.57;17.57;;;12.70;99.90;;;;;;5051221;28;20899;-65
2021/10/07 06:31:26;;;;;;;37.67;21.30;;;12.70;99.90;;;;;;5051290;28;20436;-63
2021/10/07 06:33:53;;;;;;;38.70;18.50;;;12.70;99.90;;;;;;5051441;28;21103;-66
2021/10/07 06:36:20;;;;;;;30.20;17.10;;;12.60;99.90;;;;;;5051549;28;20471;-66
2021/10/07 06:38:47;;;;;;;38.20;19.50;;;12.70;99.90;;;;;;5050998;28;20491;-65
2021/10/07 06:41:14;;;;;;;30.27;17.90;;;12.80;99.90;;;;;;5051515;28;20440;-63
2021/10/07 06:43:41;;;;;;;29.53;17.60;;;12.80;99.90;;;;;;5055300;28;20459;-65
2021/10/07 06:46:09;;;;;;;31.00;18.30;;;12.80;99.90;;;;;;5055217;28;20447;-65
2021/10/07 06:48:35;;;;;;;36.17;19.90;;;12.90;99.90;;;;;;5055039;28;20816;-65
2021/10/07 06:51:02;;;;;;;31.50;17.67;;;12.90;99.90;;;;;;5055299;28;20451;-64
2021/10/07 06:53:29;;;;;;;29.37;18.13;;;13.00;99.90;;;;;;5055165;28;20513;-66
2021/10/07 06:55:56;;;;;;;33.90;20.43;;;13.00;99.90;;;;;;5055034;28;20933;-64
2021/10/07 06:58:23;;;;;;;27.83;18.77;;;13.00;99.90;;;;;;5054758;28;20492;-65
2021/10/07 07:00:49;;;;;;;30.00;18.07;;;13.10;99.90;;;;;;5055032;28;20868;-63
2021/10/07 07:03:17;;;;;;;37.30;18.87;;;13.00;99.90;;;;;;5055009;28;20470;-64
2021/10/07 07:05:44;;;;;;;34.13;18.40;;;12.90;99.90;;;;;;5054989;28;20448;-63
2021/10/07 07:08:11;;;;;;;31.70;16.60;;;12.90;99.90;;;;;;5054628;28;20468;-67
2021/10/07 07:10:37;;;;;;;30.83;16.87;;;13.00;99.90;;;;;;5054846;28;20478;-64
2021/10/07 07:13:06;;;;;;;33.53;20.07;;;13.00;99.90;;;;;;5054628;28;20921;-63
2021/10/07 07:15:33;;;;;;;31.67;19.90;;;13.00;99.90;;;;;;5054749;28;20467;-67
2021/10/07 07:18:00;;;;;;;36.70;22.07;;;13.10;99.90;;;;;;5054331;28;20487;-65
2021/10/07 07:20:28;;;;;;;31.13;21.23;;;13.20;99.90;;;;;;5054524;28;20528;-64
2021/10/07 07:22:54;;;;;;;33.87;22.60;;;13.20;99.90;;;;;;5054487;28;20497;-63
2021/10/07 07:25:21;;;;;;;30.50;21.40;;;13.20;99.90;;;;;;5054429;28;20444;-65
2021/10/07 07:27:48;;;;;;;35.53;21.30;;;13.30;99.90;;;;;;5054365;28;20937;-63
2021/10/07 07:30:15;;;;;;;34.10;21.60;;;13.30;99.90;;;;;;5054447;28;20537;-63
2021/10/07 07:32:42;;;;;;;35.97;23.17;;;13.40;99.90;;;;;;5054395;28;20475;-63
2021/10/07 07:35:10;;;;;;;34.90;23.97;;;13.30;99.90;;;;;;5054385;28;20440;-63
2021/10/07 07:37:38;;;;;;;31.33;21.30;;;13.30;99.90;;;;;;5054281;28;20479;-65
2021/10/07 07:40:06;;;;;;;28.83;21.77;;;13.40;99.90;;;;;;5053940;28;20464;-63
2021/10/07 07:42:33;;;;;;;31.43;23.63;;;13.50;99.90;;;;;;5054230;28;20451;-63
2021/10/07 07:45:00;;;;;;;33.00;23.73;;;13.50;99.90;;;;;;5054224;28;20443;-63
2021/10/07 07:47:26;;;;;;;35.73;23.20;;;13.60;99.90;;;;;;5054312;28;20436;-65
2021/10/07 07:49:53;;;;;;;33.40;24.07;;;13.60;99.90;;;;;;5053820;28;20981;-63
2021/10/07 07:52:22;;;;;;;37.77;24.37;;;13.70;99.90;;;;;;5053929;28;20472;-66
2021/10/07 07:54:50;;;;;;;30.67;22.87;;;13.90;99.90;;;;;;5053168;28;20455;-65
2021/10/07 07:57:17;;;;;;;36.50;24.50;;;14.00;99.90;;;;;;5053790;28;20440;-64
2021/10/07 07:59:43;;;;;;;33.07;24.03;;;14.10;99.90;;;;;;5053673;28;20483;-63
2021/10/07 08:02:14;;;;;;;34.13;25.50;;;14.20;99.90;;;;;;5053807;28;20444;-63
2021/10/07 08:04:41;;;;;;;35.27;27.00;;;14.20;99.90;;;;;;5053878;28;20447;-63
2021/10/07 08:07:08;;;;;;;32.17;26.63;;;14.30;99.90;;;;;;5053992;28;20444;-65
2021/10/07 08:09:38;;;;;;;34.47;27.20;;;14.30;99.90;;;;;;5053419;28;20518;-63
2021/10/07 08:12:07;;;;;;;37.07;28.93;;;14.20;99.90;;;;;;5053837;28;20802;-64
2021/10/07 08:14:33;;;;;;;37.07;27.50;;;14.20;99.90;;;;;;5053568;28;20444;-64
2021/10/07 08:17:01;;;;;;;32.33;26.80;;;14.30;99.90;;;;;;5053490;28;20447;-63
2021/10/07 08:19:28;;;;;;;29.80;26.67;;;14.50;99.90;;;;;;5053143;28;20483;-63
2021/10/07 08:21:55;;;;;;;40.80;27.80;;;14.60;99.90;;;;;;5053479;28;20436;-64
2021/10/07 08:24:23;;;;;;;35.37;29.00;;;14.80;99.90;;;;;;5053513;28;20451;-64
2021/10/07 08:26:49;;;;;;;31.97;26.33;;;15.10;99.90;;;;;;5053391;28;20510;-64
2021/10/07 08:29:18;;;;;;;34.53;27.70;;;15.50;99.90;;;;;;5053167;28;20468;-63
2021/10/07 08:31:44;;;;;;;35.53;29.70;;;16.10;99.90;;;;;;5053284;28;20455;-63
2021/10/07 08:34:11;;;;;;;32.20;28.97;;;16.50;99.90;;;;;;5053276;28;20813;-64
2021/10/07 08:36:42;;;;;;;33.33;29.93;;;16.90;99.90;;;;;;5053209;28;20448;-64
2021/10/07 08:39:09;;;;;;;34.23;30.93;;;17.20;99.90;;;;;;5052748;28;20493;-64
2021/10/07 08:41:36;;;;;;;37.60;33.57;;;17.80;99.90;;;;;;5053037;28;20515;-63
2021/10/07 08:44:03;;;;;;;37.73;34.00;;;18.10;99.90;;;;;;5053101;28;20505;-63
2021/10/07 08:46:31;;;;;;;35.73;32.53;;;18.50;99.90;;;;;;5052894;28;20447;-63
2021/10/07 08:49:00;;;;;;;36.03;33.03;;;18.80;99.90;;;;;;5052756;28;20909;-64
2021/10/07 08:51:26;;;;;;;36.50;32.93;;;19.00;99.90;;;;;;5053073;28;20859;-63
2021/10/07 08:53:53;;;;;;;39.10;35.10;;;19.30;99.90;;;;;;5052803;28;20455;-64
2021/10/07 08:56:21;;;;;;;37.90;34.40;;;19.30;99.90;;;;;;5052811;28;20451;-64
2021/10/07 08:58:47;;;;;;;38.53;35.00;;;19.40;99.90;;;;;;5052249;28;20519;-65
2021/10/07 09:01:37;;;;;;;38.07;34.80;;;19.40;99.90;;;;;;5052630;28;20440;-64
2021/10/07 09:04:17;;;;;;;38.60;35.13;;;19.50;99.90;;;;;;5052390;28;20471;-64
2021/10/07 09:06:46;;;;;;;40.83;36.80;;;19.80;99.90;;;;;;5052646;28;20447;-64
2021/10/07 09:09:13;;;;;;;39.47;35.87;;;19.60;99.90;;;;;;5052231;28;20452;-64
2021/10/07 09:11:40;;;;;;;42.47;38.63;;;19.70;99.90;;;;;;5052390;28;20440;-66
2021/10/07 09:14:08;;;;;;;40.77;37.10;;;19.60;99.90;;;;;;5052312;28;20948;-63
2021/10/07 09:16:45;;;;;;;39.57;36.30;;;20.10;99.90;;;;;;5052375;28;20813;-64
2021/10/07 09:19:19;;;;;;;40.67;37.10;;;20.30;99.90;;;;;;5052046;28;20495;-64
2021/10/07 09:21:48;;;;;;;41.23;37.97;;;20.20;99.90;;;;;;5052509;28;20443;-67
2021/10/07 09:24:35;;;;;;;43.10;39.13;;;20.60;99.90;;;;;;5052335;28;20448;-66
2021/10/07 09:27:05;;;;;;;42.43;38.37;;;20.70;99.90;;;;;;5052259;28;20440;-66
2021/10/07 09:29:33;;;;;;;42.67;38.50;;;20.70;99.90;;;;;;5051838;28;20467;-65
2021/10/07 09:32:01;;;;;;;41.93;38.50;;;20.60;99.90;;;;;;5052320;28;20455;-66
2021/10/07 09:34:39;;;;;;;40.67;37.13;;;20.60;99.90;;;;;;5052233;28;20444;-66
2021/10/07 09:37:28;;;;;;;37.87;34.87;;;20.80;99.90;;;;;;5052195;28;21110;-65
2021/10/07 09:39:57;;;;;;;34.37;31.80;;;20.60;99.90;;;;;;5051655;28;20484;-66
2021/10/07 09:42:25;;;;;;;35.60;33.30;;;20.60;99.90;;;;;;5052101;28;20807;-66
2021/10/07 09:45:12;;;;;;;36.17;33.17;;;20.40;99.90;;;;;;5052014;28;20485;-65
2021/10/07 09:47:44;;;;;;;37.50;34.63;;;20.50;99.90;;;;;;5052010;28;20440;-65
2021/10/07 09:50:20;;;;;;;34.50;32.07;;;20.60;99.90;;;;;;5051743;28;20460;-65
2021/10/07 09:52:48;;;;;;;36.03;33.17;;;20.80;99.90;;;;;;5051923;28;20447;-65
2021/10/07 09:55:18;;;;;;;37.50;34.50;;;21.00;99.90;;;;;;5051772;28;20437;-66
2021/10/07 09:57:50;;;;;;;33.23;30.90;;;20.80;99.90;;;;;;5051783;28;20811;-66
2021/10/07 10:00:17;;;;;;;35.67;33.27;;;20.50;99.90;;;;;;5058755;22;21036;-65
2021/10/07 10:02:45;;;;;;;33.53;31.40;;;20.30;99.90;;;;;;5031757;28;20465;-63
2021/10/07 10:05:13;;;;;;;35.50;32.60;;;20.10;99.90;;;;;;5031722;28;20819;-64
2021/10/07 10:07:40;;;;;;;34.50;31.70;;;20.30;99.90;;;;;;5031912;28;20449;-63
2021/10/07 10:10:08;;;;;;;35.00;32.17;;;20.00;99.90;;;;;;5031553;28;20881;-62
2021/10/07 10:12:35;;;;;;;34.40;31.87;;;20.00;99.90;;;;;;5031702;28;20444;-63
2021/10/07 10:15:02;;;;;;;35.03;32.47;;;20.40;99.90;;;;;;5031846;28;20452;-62
2021/10/07 10:17:29;;;;;;;33.13;30.83;;;20.60;99.90;;;;;;5031003;28;20445;-66
2021/10/07 10:19:59;;;;;;;30.50;28.60;;;20.50;99.90;;;;;;5031076;28;20481;-63
2021/10/07 10:22:26;;;;;;;30.67;28.67;;;20.30;99.00;;;;;;5031824;28;20817;-63
2021/10/07 10:24:53;;;;;;;31.07;28.83;;;20.10;99.10;;;;;;5031440;28;20441;-65
2021/10/07 10:27:20;;;;;;;33.30;30.90;;;19.70;99.30;;;;;;5031552;28;20968;-65
2021/10/07 10:29:47;;;;;;;32.03;29.90;;;19.80;99.50;;;;;;5031275;28;20514;-65
2021/10/07 10:32:14;;;;;;;31.90;29.87;;;19.80;99.60;;;;;;5031399;28;20453;-63
2021/10/07 10:34:42;;;;;;;31.87;29.57;;;19.90;99.70;;;;;;5031516;28;20445;-65
2021/10/07 10:37:11;;;;;;;31.40;29.00;;;19.50;99.90;;;;;;5031386;28;20457;-65
2021/10/07 10:39:39;;;;;;;33.40;31.20;;;19.50;99.90;;;;;;5030943;28;20992;-65
2021/10/07 10:42:07;;;;;;;31.90;29.90;;;19.50;99.90;;;;;;5031476;28;20453;-65
2021/10/07 10:44:42;;;;;;;32.03;29.73;;;19.70;99.90;;;;;;5031378;28;20444;-64
2021/10/07 10:47:18;;;;;;;29.90;27.90;;;19.50;99.90;;;;;;5031408;28;20444;-64
2021/10/07 10:50:12;;;;;;;31.40;29.20;;;19.30;99.90;;;;;;5031173;28;20488;-63
2021/10/07 10:52:43;;;;;;;32.20;30.13;;;19.40;99.90;;;;;;5031316;28;20869;-65
2021/10/07 10:55:12;;;;;;;31.73;29.57;;;19.40;99.90;;;;;;5031468;28;20449;-65
2021/10/07 10:57:40;;;;;;;31.47;29.50;;;19.60;99.90;;;;;;5031338;28;20452;-65
2021/10/07 11:00:13;;;;;;;29.60;27.70;;;19.80;99.90;;;;;;5030917;28;20488;-65
2021/10/07 11:02:41;;;;;;;30.27;27.97;;;19.90;99.90;;;;;;5031217;28;20454;-64
2021/10/07 11:05:14;;;;;;;30.50;28.50;;;19.90;99.90;;;;;;5031369;28;20503;-64
2021/10/07 11:07:42;;;;;;;30.57;28.57;;;19.90;99.90;;;;;;5031077;28;20446;-65
2021/10/07 11:10:27;;;;;;;32.37;29.97;;;20.40;99.90;;;;;;5030966;28;20464;-64
2021/10/07 11:12:56;;;;;;;32.07;30.00;;;21.20;99.50;;;;;;5030992;28;20445;-64
2021/10/07 11:15:25;;;;;;;30.90;28.90;;;22.10;96.70;;;;;;5031124;28;20445;-64
2021/10/07 11:17:53;;;;;;;32.13;30.10;;;22.70;94.50;;;;;;5031037;28;20461;-65
2021/10/07 11:20:23;;;;;;;31.70;29.40;;;22.70;93.10;;;;;;5030846;28;20492;-65
2021/10/07 11:23:16;;;;;;;34.73;32.43;;;22.30;93.00;;;;;;5031062;28;20468;-66
2021/10/07 11:25:46;;;;;;;34.93;32.57;;;22.80;94.30;;;;;;5030997;28;20918;-63
2021/10/07 11:28:13;;;;;;;34.27;32.17;;;24.10;92.40;;;;;;5032357;28;20441;-60
2021/10/07 11:30:43;;;;;;;32.87;31.03;;;25.90;83.30;;;;;;5034384;28;20433;-63
2021/10/07 11:33:10;;;;;;;32.77;30.97;;;27.10;72.20;;;;;;5034392;28;20531;-63
2021/10/07 11:35:37;;;;;;;34.27;32.13;;;28.70;62.60;;;;;;5034501;28;20443;-63
2021/10/07 11:38:07;;;;;;;33.90;31.80;;;29.50;56.00;;;;;;5034311;28;20464;-63
2021/10/07 11:40:43;;;;;;;34.23;31.80;;;30.10;52.50;;;;;;5034084;28;20492;-61
2021/10/07 11:43:12;;;;;;;34.57;32.50;;;28.50;51.80;;;;;;5034146;28;20488;-62
2021/10/07 11:45:41;;;;;;;32.70;30.80;;;27.40;53.50;;;;;;5034162;28;20452;-63
2021/10/07 11:48:08;;;;;;;34.10;31.63;;;27.10;56.10;;;;;;5033870;28;20452;-63
2021/10/07 11:50:38;;;;;;;32.33;30.33;;;27.80;54.90;;;;;;5034123;28;20480;-63
2021/10/07 11:53:05;;;;;;;33.87;31.87;;;27.40;53.20;;;;;;5034202;28;20445;-63
2021/10/07 11:55:32;;;;;;;32.60;30.70;;;26.40;55.70;;;;;;5034109;28;20453;-61
2021/10/07 11:58:02;;;;;;;34.77;32.20;;;26.20;54.70;;;;;;5033626;28;20445;-62
2021/10/07 12:00:40;;;;;;;29.03;27.50;;;24.60;57.60;;;;;;5033684;28;20489;-62
2021/10/07 12:03:22;;;;;;;29.13;27.60;;;24.60;58.10;;;;;;5033921;28;20453;-62
2021/10/07 12:05:53;;;;;;;27.67;26.17;;;24.40;57.80;;;;;;5034031;28;20445;-62
2021/10/07 12:08:21;;;;;;;28.30;26.70;;;23.40;59.80;;;;;;5033584;28;20849;-63
2021/10/07 12:10:51;;;;;;;28.80;26.90;;;23.40;61.80;;;;;;5033685;28;20450;-63
2021/10/07 12:13:20;;;;;;;30.03;28.43;;;23.20;63.40;;;;;;5033723;28;20956;-63
2021/10/07 12:15:57;;;;;;;30.37;28.30;;;22.60;65.80;;;;;;5033613;28;20543;-65
2021/10/07 12:18:25;;;;;;;30.10;28.30;;;22.20;69.60;;;;;;5033435;28;20930;-65
2021/10/07 12:21:00;;;;;;;29.73;28.13;;;22.20;71.60;;;;;;5033682;28;20481;-65
2021/10/07 12:23:27;;;;;;;31.37;29.47;;;21.90;72.30;;;;;;5033632;28;20440;-66
2021/10/07 12:25:56;;;;;;;30.13;28.50;;;21.90;72.90;;;;;;5033394;28;20469;-64
2021/10/07 12:28:25;;;;;;;26.80;25.50;;;22.00;73.80;;;;;;5033378;28;20499;-63
2021/10/07 12:30:55;;;;;;;28.63;26.83;;;22.10;75.00;;;;;;5033412;28;20456;-62
2021/10/07 12:33:22;;;;;;;29.90;28.10;;;22.20;75.00;;;;;;5033402;28;20449;-65
2021/10/07 12:36:01;;;;;;;29.53;27.63;;;21.90;76.70;;;;;;5033480;28;20455;-65